createdAt,value
2023-04-20T00:01:14.885Z,1.54
2023-04-20T00:05:17.839Z,1.67
2023-04-20T00:09:20.839Z,1.91
2023-04-20T00:13:25.501Z,1.79
2023-04-20T00:17:28.523Z,1.79
2023-04-20T00:21:31.449Z,1.37
2023-04-20T00:25:34.333Z,1.60
2023-04-20T00:29:38.620Z,0.96
2023-04-20T00:33:42.051Z,1.11
2023-04-20T00:37:45.216Z,0.95
2023-04-20T00:41:48.197Z,1.37
2023-04-20T00:45:52.919Z,1.25
2023-04-20T00:49:56.728Z,0.83
2023-04-20T00:53:59.740Z,0.78
2023-04-20T00:58:03.095Z,1.37
2023-04-20T01:02:07.733Z,0.75
2023-04-20T01:06:11.015Z,1.00
2023-04-20T01:10:14.095Z,1.03
2023-04-20T01:14:16.958Z,0.88
2023-04-20T01:18:21.119Z,0.86
2023-04-20T01:22:25.609Z,0.34
2023-04-20T01:26:28.835Z,0.79
2023-04-20T01:30:31.987Z,0.70
2023-04-20T01:34:35.148Z,0.59
2023-04-20T01:38:39.968Z,0.82
2023-04-20T01:42:42.775Z,0.16
2023-04-20T01:46:45.701Z,0.40
2023-04-20T01:50:51.824Z,-0.14
2023-04-20T01:54:56.159Z,-0.09
2023-04-20T01:58:59.677Z,-0.07
2023-04-20T02:03:02.734Z,0.38
2023-04-20T02:07:05.863Z,0.11
2023-04-20T02:11:10.316Z,0.38
2023-04-20T02:15:13.349Z,-0.07
2023-04-20T02:19:16.844Z,-0.10
2023-04-20T02:23:19.871Z,0.09
2023-04-20T02:27:24.404Z,0.00
2023-04-20T02:31:27.049Z,0.06
2023-04-20T02:35:29.986Z,-0.16
2023-04-20T02:39:32.984Z,0.01
2023-04-20T02:43:37.173Z,-0.13
2023-04-20T02:47:40.410Z,0.14
2023-04-20T02:51:43.384Z,-0.40
2023-04-20T02:55:46.318Z,-0.05
2023-04-20T02:59:50.590Z,-0.27
2023-04-20T03:03:53.710Z,-0.42
2023-04-20T03:07:57.780Z,-0.62
2023-04-20T03:12:02.686Z,-0.16
2023-04-20T03:16:07.690Z,-0.38
2023-04-20T03:20:11.212Z,-0.39
2023-04-20T03:24:14.435Z,-0.53
2023-04-20T03:28:17.402Z,-1.05
2023-04-20T03:32:21.587Z,-0.83
2023-04-20T03:36:24.753Z,-0.53
2023-04-20T03:40:27.992Z,-0.44
2023-04-20T03:44:30.834Z,-0.53
2023-04-20T03:48:35.144Z,-0.30
2023-04-20T03:52:38.460Z,-0.42
2023-04-20T03:56:41.235Z,-0.63
2023-04-20T04:00:44.045Z,-0.48
2023-04-20T04:04:48.454Z,-0.39
2023-04-20T04:08:51.318Z,-0.75
2023-04-20T04:12:54.254Z,-0.46
2023-04-20T04:16:57.313Z,-1.13
2023-04-20T04:21:01.678Z,-0.67
2023-04-20T04:25:05.188Z,-0.54
2023-04-20T04:29:08.021Z,-0.67
2023-04-20T04:33:14.616Z,-1.17
2023-04-20T04:37:19.020Z,-0.73
2023-04-20T04:41:22.196Z,-0.69
2023-04-20T04:45:26.182Z,-0.41
2023-04-20T04:49:30.054Z,-1.06
2023-04-20T04:53:34.259Z,-0.71
2023-04-20T04:57:38.838Z,-0.94
2023-04-20T05:01:41.758Z,-0.87
2023-04-20T05:05:44.547Z,-0.66
2023-04-20T05:09:49.022Z,-0.20
2023-04-20T05:13:51.772Z,0.17
2023-04-20T05:17:54.562Z,0.81
2023-04-20T05:21:57.404Z,0.72
2023-04-20T05:26:01.734Z,0.38
2023-04-20T05:30:19.003Z,0.28
2023-04-20T05:34:23.849Z,0.30
2023-04-20T05:38:26.769Z,0.25
2023-04-20T05:42:30.867Z,0.73
2023-04-20T05:46:33.807Z,0.54
2023-04-20T05:50:36.722Z,1.47
2023-04-20T05:54:39.545Z,2.88
2023-04-20T05:58:44.232Z,3.89
2023-04-20T06:02:47.352Z,3.78
2023-04-20T06:06:50.962Z,3.14
2023-04-20T06:10:55.947Z,2.70
2023-04-20T06:15:00.548Z,2.87
2023-04-20T06:19:03.497Z,2.76
2023-04-20T06:23:06.402Z,2.71
2023-04-20T06:27:09.151Z,2.99
2023-04-20T06:31:13.335Z,3.19
2023-04-20T06:35:16.456Z,3.50
2023-04-20T06:39:19.509Z,3.36
2023-04-20T06:43:22.680Z,3.73
2023-04-20T06:47:31.514Z,3.81
2023-04-20T06:51:34.710Z,4.09
2023-04-20T06:55:37.734Z,4.45
2023-04-20T06:59:40.459Z,4.43
2023-04-20T07:03:47.148Z,4.55
2023-04-20T07:07:50.328Z,4.74
2023-04-20T07:11:53.079Z,4.93
2023-04-20T07:15:55.878Z,5.19
2023-04-20T07:20:06.506Z,5.38
2023-04-20T07:24:09.392Z,5.55
2023-04-20T07:28:12.481Z,5.52
2023-04-20T07:32:15.613Z,5.49
2023-04-20T07:36:21.684Z,5.49
2023-04-20T07:40:24.743Z,5.50
2023-04-20T07:44:27.792Z,5.51
2023-04-20T07:48:31.050Z,5.51
2023-04-20T07:52:35.746Z,5.60
2023-04-20T07:56:38.557Z,5.62
2023-04-20T08:00:41.635Z,5.53
2023-04-20T08:04:45.072Z,5.40
2023-04-20T08:08:49.682Z,5.64
2023-04-20T08:12:53.541Z,5.89
2023-04-20T08:16:56.823Z,5.86
2023-04-20T08:20:59.877Z,5.67
2023-04-20T08:25:04.956Z,5.55
2023-04-20T08:29:07.821Z,5.61
2023-04-20T08:33:11.486Z,5.79
2023-04-20T08:37:14.476Z,6.02
2023-04-20T08:41:18.645Z,6.21
2023-04-20T08:45:21.577Z,6.06
2023-04-20T08:49:24.594Z,6.03
2023-04-20T08:53:27.522Z,6.01
2023-04-20T08:57:32.170Z,5.94
2023-04-20T09:01:36.284Z,5.95
2023-04-20T09:05:40.045Z,5.96
2023-04-20T09:09:43.631Z,5.91
2023-04-20T09:13:58.822Z,5.83
2023-04-20T09:18:12.519Z,5.98
2023-04-20T09:22:15.486Z,5.82
2023-04-20T09:26:19.756Z,5.70
2023-04-20T09:30:26.501Z,5.78
2023-04-20T09:34:29.693Z,5.78
2023-04-20T09:38:33.544Z,5.66
2023-04-20T09:42:39.717Z,6.09
2023-04-20T09:46:44.627Z,6.19
2023-04-20T09:50:51.261Z,5.82
2023-04-20T09:54:55.750Z,6.55
2023-04-20T09:58:59.054Z,6.56
2023-04-20T10:03:03.717Z,6.73
2023-04-20T10:07:08.015Z,7.07
2023-04-20T10:11:11.152Z,7.22
2023-04-20T10:15:14.030Z,7.41
2023-04-20T10:19:18.863Z,7.12
2023-04-20T10:23:22.594Z,7.26
2023-04-20T10:27:25.477Z,6.79
2023-04-20T10:31:37.160Z,7.29
2023-04-20T10:35:48.044Z,8.07
2023-04-20T10:39:50.914Z,7.43
2023-04-20T10:43:53.988Z,8.23
2023-04-20T10:47:57.148Z,7.90
2023-04-20T10:52:01.490Z,7.78
2023-04-20T10:56:04.371Z,7.53
2023-04-20T11:00:16.945Z,8.05
2023-04-20T11:04:19.911Z,8.03
2023-04-20T11:08:24.433Z,8.23
2023-04-20T11:12:27.333Z,8.36
2023-04-20T11:16:44.303Z,8.39
2023-04-20T11:20:53.181Z,8.66
2023-04-20T11:25:06.954Z,9.81
2023-04-20T11:29:09.942Z,9.69
2023-04-20T11:33:13.891Z,10.60
2023-04-20T11:37:17.827Z,10.27
2023-04-20T11:41:21.978Z,8.86
2023-04-20T11:45:24.899Z,9.20
2023-04-20T11:49:29.885Z,8.98
2023-04-20T11:53:32.776Z,8.83
2023-04-20T11:57:37.240Z,8.69
2023-04-20T12:01:40.062Z,9.94
2023-04-20T12:05:43.276Z,9.23
2023-04-20T12:09:46.162Z,10.18
2023-04-20T12:13:50.428Z,9.33
2023-04-20T12:17:53.228Z,9.80
2023-04-20T12:21:56.402Z,10.31
2023-04-20T12:25:59.258Z,9.61
2023-04-20T12:30:04.194Z,10.68
2023-04-20T12:34:09.783Z,10.74
2023-04-20T12:38:14.555Z,10.88
2023-04-20T12:42:17.648Z,10.87
2023-04-20T12:46:21.939Z,9.88
2023-04-20T12:50:24.665Z,10.19
2023-04-20T12:54:27.432Z,11.28
2023-04-20T12:58:30.195Z,11.64
2023-04-20T13:02:34.665Z,11.36
2023-04-20T13:06:38.231Z,11.21
2023-04-20T13:10:42.773Z,11.26
2023-04-20T13:14:45.932Z,10.86
2023-04-20T13:18:50.572Z,11.03
2023-04-20T13:22:57.827Z,11.38
2023-04-20T13:27:01.855Z,12.05
2023-04-20T13:31:04.870Z,12.14
2023-04-20T13:35:12.453Z,11.44
2023-04-20T13:39:15.710Z,11.04
2023-04-20T13:43:21.354Z,9.39
2023-04-20T13:47:25.676Z,8.96
2023-04-20T13:51:31.205Z,8.66
2023-04-20T13:55:33.883Z,8.87
2023-04-20T13:59:36.961Z,9.02
2023-04-20T14:03:40.018Z,8.78
2023-04-20T14:07:44.263Z,8.86
2023-04-20T14:11:47.381Z,9.15
2023-04-20T14:15:51.447Z,9.19
2023-04-20T14:19:54.871Z,9.11
2023-04-20T14:23:59.260Z,10.08
2023-04-20T14:28:02.746Z,9.95
2023-04-20T14:32:05.795Z,9.94
2023-04-20T14:36:09.247Z,11.19
2023-04-20T14:40:14.282Z,11.32
2023-04-20T14:44:17.291Z,9.73
2023-04-20T14:48:20.348Z,9.13
2023-04-20T14:52:23.224Z,7.51
2023-04-20T14:56:29.810Z,7.08
2023-04-20T15:00:32.922Z,6.90
2023-04-20T15:04:35.941Z,6.91
2023-04-20T15:08:39.053Z,6.99
2023-04-20T15:12:43.525Z,6.67
2023-04-20T15:16:46.520Z,6.58
2023-04-20T15:20:49.354Z,6.46
2023-04-20T15:24:52.615Z,6.46
2023-04-20T15:28:58.018Z,6.42
2023-04-20T15:33:04.521Z,6.16
2023-04-20T15:37:08.462Z,6.28
2023-04-20T15:41:11.626Z,6.41
2023-04-20T15:45:16.218Z,6.41
2023-04-20T15:49:20.830Z,6.73
2023-04-20T15:53:24.247Z,6.95
2023-04-20T15:57:27.079Z,6.91
2023-04-20T16:01:31.208Z,6.96
2023-04-20T16:05:34.501Z,7.20
2023-04-20T16:09:37.275Z,7.05
2023-04-20T16:13:40.067Z,7.16
2023-04-20T16:17:45.363Z,7.22
2023-04-20T16:21:48.110Z,7.23
2023-04-20T16:25:52.278Z,7.35
2023-04-20T16:29:55.200Z,7.16
2023-04-20T16:34:00.131Z,7.11
2023-04-20T16:38:03.245Z,7.37
2023-04-20T16:42:06.199Z,7.17
2023-04-20T16:46:12.899Z,7.36
2023-04-20T16:50:19.588Z,7.83
2023-04-20T16:54:22.753Z,7.66
2023-04-20T16:58:27.540Z,7.71
2023-04-20T17:02:33.147Z,7.11
2023-04-20T17:06:38.516Z,6.46
2023-04-20T17:10:42.618Z,6.23
2023-04-20T17:14:47.408Z,5.87
2023-04-20T17:18:52.697Z,5.63
2023-04-20T17:22:59.377Z,5.76
2023-04-20T17:27:05.135Z,5.72
2023-04-20T17:31:09.308Z,5.89
2023-04-20T17:35:13.319Z,5.87
2023-04-20T17:39:20.881Z,6.00
2023-04-20T17:43:25.769Z,6.05
2023-04-20T17:47:35.228Z,5.95
2023-04-20T17:51:40.412Z,5.87
2023-04-20T17:55:47.010Z,5.81
2023-04-20T17:59:53.305Z,5.77
2023-04-20T18:03:59.056Z,5.74
2023-04-20T18:08:04.313Z,5.75
2023-04-20T18:12:11.796Z,5.52
2023-04-20T18:16:17.777Z,5.43
2023-04-20T18:20:22.416Z,5.26
2023-04-20T18:24:26.914Z,5.28
2023-04-20T18:28:31.881Z,5.36
2023-04-20T18:32:36.910Z,5.64
2023-04-20T18:36:42.116Z,5.40
2023-04-20T18:40:47.881Z,5.45
2023-04-20T18:44:56.831Z,5.38
2023-04-20T18:49:01.341Z,5.42
2023-04-20T18:53:06.458Z,5.54
2023-04-20T18:57:12.768Z,5.65
2023-04-20T19:01:20.507Z,5.63
2023-04-20T19:05:26.531Z,5.64
2023-04-20T19:09:31.406Z,5.59
2023-04-20T19:13:36.948Z,5.32
2023-04-20T19:17:46.612Z,5.27
2023-04-20T19:21:50.767Z,5.30
2023-04-20T19:25:55.433Z,5.43
2023-04-20T19:29:59.436Z,5.26
2023-04-20T19:34:05.246Z,5.49
2023-04-20T19:38:08.508Z,4.93
2023-04-20T19:42:13.164Z,5.06
2023-04-20T19:46:17.741Z,4.97
2023-04-20T19:50:23.596Z,4.99
2023-04-20T19:54:27.404Z,5.01
2023-04-20T19:58:30.433Z,4.41
2023-04-20T20:02:33.976Z,4.28
2023-04-20T20:06:38.426Z,4.45
2023-04-20T20:10:41.895Z,4.10
2023-04-20T20:14:44.892Z,4.01
2023-04-20T20:18:49.075Z,4.04
2023-04-20T20:22:53.528Z,4.20
2023-04-20T20:26:57.791Z,4.02
2023-04-20T20:31:02.539Z,4.15
2023-04-20T20:35:10.802Z,3.74
2023-04-20T20:39:17.938Z,3.73
2023-04-20T20:43:23.537Z,3.35
2023-04-20T20:47:27.959Z,3.69
2023-04-20T20:51:33.581Z,2.67
2023-04-20T20:55:41.257Z,3.33
2023-04-20T20:59:44.975Z,2.77
2023-04-20T21:03:50.055Z,2.65
2023-04-20T21:07:53.120Z,2.83
2023-04-20T21:12:01.749Z,2.94
2023-04-20T21:16:07.178Z,3.12
2023-04-20T21:20:13.777Z,2.69
2023-04-20T21:24:18.665Z,3.21
2023-04-20T21:28:25.469Z,2.70
2023-04-20T21:32:31.290Z,2.35
2023-04-20T21:36:36.462Z,2.55
2023-04-20T21:40:42.279Z,2.44
2023-04-20T21:44:51.758Z,2.49
2023-04-20T21:48:54.508Z,2.63
2023-04-20T21:52:58.589Z,2.69
2023-04-20T21:57:02.223Z,2.55
2023-04-20T22:01:10.405Z,2.21
2023-04-20T22:05:15.619Z,2.22
2023-04-20T22:09:20.298Z,1.98
2023-04-20T22:13:25.280Z,1.91
2023-04-20T22:17:33.586Z,1.93
2023-04-20T22:21:38.532Z,2.05
2023-04-20T22:25:43.265Z,1.48
2023-04-20T22:29:48.178Z,1.18
2023-04-20T22:33:54.898Z,1.46
2023-04-20T22:38:00.032Z,1.60
2023-04-20T22:42:06.231Z,1.61
2023-04-20T22:46:11.690Z,1.67
2023-04-20T22:50:19.097Z,1.98
2023-04-20T22:54:21.986Z,1.51
2023-04-20T22:58:26.540Z,1.34
2023-04-20T23:02:32.035Z,1.26
2023-04-20T23:06:36.580Z,1.37
2023-04-20T23:10:41.511Z,1.38
2023-04-20T23:14:47.873Z,0.90
2023-04-20T23:18:50.688Z,1.44
2023-04-20T23:22:55.391Z,1.10
2023-04-20T23:26:58.254Z,0.74
2023-04-20T23:31:01.733Z,0.65
2023-04-20T23:35:04.726Z,0.83
2023-04-20T23:39:09.208Z,0.86
2023-04-20T23:43:12.275Z,0.97
2023-04-20T23:47:15.549Z,0.63
2023-04-20T23:51:20.095Z,0.80
2023-04-20T23:55:30.519Z,0.62
2023-04-20T23:59:33.620Z,0.54
